02:11
Airports
Links
Donate
Help keep this website running!
PayPal
Bitcoin
METAR
NTAA 240130Z 31007KT 9999 FEW023 31/24 Q1013 NOSIG
Current Weather Conditions at NTAA
VFR 01:30:00 24-02-18
Altimeter:29.91 hg
Temp:31.0°c 88°f
Dew point:24.0°c 75°f
Wind:7 knots, 8.1 mph, 4 m/s, from 310°
Visibility:6.21 statute miles
2300(FEW) A few
No significant weather changes expected within 2 hours.
Past METAR reports
VFR 01:00:00 24-02-18
Altimeter:29.91 hg
Temp:30.0°c 86°f
Dew point:22.0°c 72°f
Wind:8 knots, 9.2 mph, 4 m/s, from 330°
Visibility:6.21 statute miles
2300(FEW) A few
No significant weather changes expected within 2 hours.
NTAA 240100Z 33008KT 9999 FEW023 30/22 Q1013 NOSIG
VFR 00:30:00 24-02-18
Altimeter:29.91 hg
Temp:31.0°c 88°f
Dew point:22.0°c 72°f
Wind:5 knots, 5.8 mph, 3 m/s, from 340°
Visibility:6.21 statute miles
2300(FEW) A few
No significant weather changes expected within 2 hours.
NTAA 240030Z 34005KT 9999 FEW023 31/22 Q1013 NOSIG
VFR 00:00:00 24-02-18
Altimeter:29.94 hg
Temp:31.0°c 88°f
Dew point:23.0°c 73°f
Wind:4 knots, 4.6 mph, 2 m/s, from 360°
Visibility:6.21 statute miles
2300(FEW) A few
No significant weather changes expected within 2 hours.
NTAA 240000Z 36004KT 9999 FEW023 31/23 Q1014 NOSIG
VFR 23:30:00 23-02-18
Altimeter:29.94 hg
Temp:31.0°c 88°f
Dew point:23.0°c 73°f
Wind:4 knots, 4.6 mph, 2 m/s, from 300°
Visibility:6.21 statute miles
2300(FEW) A few
No significant weather changes expected within 2 hours.
NTAA 232330Z 30004KT 270V330 9999 FEW023 31/23 Q1014 NOSIG
VFR 23:00:00 23-02-18
Altimeter:29.94 hg
Temp:31.0°c 88°f
Dew point:22.0°c 72°f
Wind:7 knots, 8.1 mph, 4 m/s, from 260°
Visibility:6.21 statute miles
2300(FEW) A few
No significant weather changes expected within 2 hours.
NTAA 232300Z 26007KT 9999 FEW023 31/22 Q1014 NOSIG
VFR 22:30:00 23-02-18
Altimeter:29.97 hg
Temp:30.0°c 86°f
Dew point:21.0°c 70°f
Wind:9 knots, 10.4 mph, 5 m/s, from 240°
Visibility:6.21 statute miles
2300(FEW) A few
No significant weather changes expected within 2 hours.
NTAA 232230Z 24009KT 9999 FEW023 30/21 Q1015 NOSIG
TAF
TAF NTAA 232300Z 2400/2506 VRB05KT 9999 FEW023 PROB30 TEMPO 2400/2403 04015KT
Forecast at NTAA
TEMPO 00:00 24-02-18 to 03:00 24-02-18
30%
Wind:15 Knots from 40°
00:00 24-02-18 to 06:00 25-02-18
Wind:5 Knots from 360°
Visibility:6.21 statute miles
2300FEW A few